sensor_id;sensor_type;location;lat;lon;timestamp;temperature;humidity
18131;DHT22;9191;54.324;10.126;2022-11-15T00:01:07;6.90;99.90
18131;DHT22;9191;54.324;10.126;2022-11-15T00:03:34;6.90;99.90
18131;DHT22;9191;54.324;10.126;2022-11-15T00:06:04;6.90;99.90
18131;DHT22;9191;54.324;10.126;2022-11-15T00:08:31;6.90;99.90
18131;DHT22;9191;54.324;10.126;2022-11-15T00:10:58;6.90;99.90
18131;DHT22;9191;54.324;10.126;2022-11-15T00:13:26;6.90;99.90
18131;DHT22;9191;54.324;10.126;2022-11-15T00:15:56;6.90;99.90
18131;DHT22;9191;54.324;10.126;2022-11-15T00:18:22;6.80;99.90
18131;DHT22;9191;54.324;10.126;2022-11-15T00:20:49;6.90;99.90
18131;DHT22;9191;54.324;10.126;2022-11-15T00:23:16;6.90;99.90
18131;DHT22;9191;54.324;10.126;2022-11-15T00:25:43;6.90;99.90
18131;DHT22;9191;54.324;10.126;2022-11-15T00:28:09;7.00;99.90
18131;DHT22;9191;54.324;10.126;2022-11-15T00:30:37;7.10;99.90
18131;DHT22;9191;54.324;10.126;2022-11-15T00:33:04;7.00;99.90
18131;DHT22;9191;54.324;10.126;2022-11-15T00:35:31;7.00;99.90
18131;DHT22;9191;54.324;10.126;2022-11-15T00:37:58;7.10;99.90
18131;DHT22;9191;54.324;10.126;2022-11-15T00:40:25;7.00;99.90
18131;DHT22;9191;54.324;10.126;2022-11-15T00:42:52;7.10;99.90
18131;DHT22;9191;54.324;10.126;2022-11-15T00:45:19;7.10;99.90
18131;DHT22;9191;54.324;10.126;2022-11-15T00:47:47;7.10;99.90
18131;DHT22;9191;54.324;10.126;2022-11-15T00:50:13;7.00;99.90
18131;DHT22;9191;54.324;10.126;2022-11-15T00:52:40;7.00;99.90
18131;DHT22;9191;54.324;10.126;2022-11-15T00:55:08;7.10;99.90
18131;DHT22;9191;54.324;10.126;2022-11-15T00:57:35;7.00;99.90
18131;DHT22;9191;54.324;10.126;2022-11-15T01:00:05;7.00;99.90
18131;DHT22;9191;54.324;10.126;2022-11-15T01:02:32;7.00;99.90
18131;DHT22;9191;54.324;10.126;2022-11-15T01:05:00;7.10;99.90
18131;DHT22;9191;54.324;10.126;2022-11-15T01:07:27;7.00;99.90
18131;DHT22;9191;54.324;10.126;2022-11-15T01:09:54;7.10;99.90
18131;DHT22;9191;54.324;10.126;2022-11-15T01:12:20;7.10;99.90
18131;DHT22;9191;54.324;10.126;2022-11-15T01:14:47;7.10;99.90
18131;DHT22;9191;54.324;10.126;2022-11-15T01:17:14;7.10;99.90
18131;DHT22;9191;54.324;10.126;2022-11-15T01:19:40;7.20;99.90
18131;DHT22;9191;54.324;10.126;2022-11-15T01:22:08;7.20;99.90
18131;DHT22;9191;54.324;10.126;2022-11-15T01:24:35;7.20;99.90
18131;DHT22;9191;54.324;10.126;2022-11-15T01:27:02;7.20;99.90
18131;DHT22;9191;54.324;10.126;2022-11-15T01:29:29;7.20;99.90
18131;DHT22;9191;54.324;10.126;2022-11-15T01:31:55;7.30;99.90
18131;DHT22;9191;54.324;10.126;2022-11-15T01:34:22;7.30;99.90
18131;DHT22;9191;54.324;10.126;2022-11-15T01:36:49;7.40;99.90
18131;DHT22;9191;54.324;10.126;2022-11-15T01:39:17;7.40;99.90
18131;DHT22;9191;54.324;10.126;2022-11-15T01:41:44;7.40;99.90
18131;DHT22;9191;54.324;10.126;2022-11-15T01:44:31;7.30;99.90
18131;DHT22;9191;54.324;10.126;2022-11-15T01:47:03;7.30;99.90
18131;DHT22;9191;54.324;10.126;2022-11-15T01:49:32;7.30;99.90
18131;DHT22;9191;54.324;10.126;2022-11-15T01:52:00;7.30;99.90
18131;DHT22;9191;54.324;10.126;2022-11-15T01:54:29;7.30;99.90
18131;DHT22;9191;54.324;10.126;2022-11-15T01:56:57;7.30;99.90
18131;DHT22;9191;54.324;10.126;2022-11-15T01:59:25;7.40;99.90
18131;DHT22;9191;54.324;10.126;2022-11-15T02:01:52;7.40;99.90
18131;DHT22;9191;54.324;10.126;2022-11-15T02:04:20;7.40;99.90
18131;DHT22;9191;54.324;10.126;2022-11-15T02:06:48;7.30;99.90
18131;DHT22;9191;54.324;10.126;2022-11-15T02:09:15;7.30;99.90
18131;DHT22;9191;54.324;10.126;2022-11-15T02:11:44;7.30;99.90
18131;DHT22;9191;54.324;10.126;2022-11-15T02:14:11;7.30;99.90
18131;DHT22;9191;54.324;10.126;2022-11-15T02:16:42;7.30;99.90
18131;DHT22;9191;54.324;10.126;2022-11-15T02:19:14;7.40;99.90
18131;DHT22;9191;54.324;10.126;2022-11-15T02:21:47;7.30;99.90
18131;DHT22;9191;54.324;10.126;2022-11-15T02:27:08;7.30;99.90
18131;DHT22;9191;54.324;10.126;2022-11-15T02:29:49;7.20;99.90
18131;DHT22;9191;54.324;10.126;2022-11-15T02:32:24;7.20;99.90
18131;DHT22;9191;54.324;10.126;2022-11-15T02:34:58;7.20;99.90
18131;DHT22;9191;54.324;10.126;2022-11-15T02:37:29;7.20;99.90
18131;DHT22;9191;54.324;10.126;2022-11-15T02:39:58;7.10;99.90
18131;DHT22;9191;54.324;10.126;2022-11-15T02:42:28;7.10;99.90
18131;DHT22;9191;54.324;10.126;2022-11-15T02:45:17;7.20;99.90
18131;DHT22;9191;54.324;10.126;2022-11-15T02:47:47;7.20;99.90
18131;DHT22;9191;54.324;10.126;2022-11-15T02:50:15;7.20;99.90
18131;DHT22;9191;54.324;10.126;2022-11-15T02:52:44;7.10;99.90
18131;DHT22;9191;54.324;10.126;2022-11-15T02:55:25;7.10;99.90
18131;DHT22;9191;54.324;10.126;2022-11-15T02:57:56;7.10;99.90
18131;DHT22;9191;54.324;10.126;2022-11-15T03:00:24;7.10;99.90
18131;DHT22;9191;54.324;10.126;2022-11-15T03:03:01;7.20;99.90
18131;DHT22;9191;54.324;10.126;2022-11-15T03:05:34;7.10;99.90
18131;DHT22;9191;54.324;10.126;2022-11-15T03:08:03;7.10;99.90
18131;DHT22;9191;54.324;10.126;2022-11-15T03:10:36;7.00;99.90
18131;DHT22;9191;54.324;10.126;2022-11-15T03:13:07;7.00;99.90
18131;DHT22;9191;54.324;10.126;2022-11-15T03:15:39;7.10;99.90
18131;DHT22;9191;54.324;10.126;2022-11-15T03:18:10;7.00;99.90
18131;DHT22;9191;54.324;10.126;2022-11-15T03:20:39;7.00;99.90
18131;DHT22;9191;54.324;10.126;2022-11-15T03:23:06;7.00;99.90
18131;DHT22;9191;54.324;10.126;2022-11-15T03:25:34;6.90;99.90
18131;DHT22;9191;54.324;10.126;2022-11-15T03:28:03;6.90;99.90
18131;DHT22;9191;54.324;10.126;2022-11-15T03:30:32;6.80;99.90
18131;DHT22;9191;54.324;10.126;2022-11-15T03:32:59;6.80;99.90
18131;DHT22;9191;54.324;10.126;2022-11-15T03:35:29;6.80;99.90
18131;DHT22;9191;54.324;10.126;2022-11-15T03:37:57;6.80;99.90
18131;DHT22;9191;54.324;10.126;2022-11-15T03:40:27;6.90;99.90
18131;DHT22;9191;54.324;10.126;2022-11-15T03:42:57;6.80;99.90
18131;DHT22;9191;54.324;10.126;2022-11-15T03:45:27;6.80;99.90
18131;DHT22;9191;54.324;10.126;2022-11-15T03:47:58;6.80;99.90
18131;DHT22;9191;54.324;10.126;2022-11-15T03:50:26;6.80;99.90
18131;DHT22;9191;54.324;10.126;2022-11-15T03:52:54;6.80;99.90
18131;DHT22;9191;54.324;10.126;2022-11-15T03:55:22;6.80;99.90
18131;DHT22;9191;54.324;10.126;2022-11-15T03:57:49;6.80;99.90
18131;DHT22;9191;54.324;10.126;2022-11-15T04:00:16;6.70;99.90
18131;DHT22;9191;54.324;10.126;2022-11-15T04:02:43;6.70;99.90
18131;DHT22;9191;54.324;10.126;2022-11-15T04:05:10;6.70;99.90
18131;DHT22;9191;54.324;10.126;2022-11-15T04:07:37;6.70;99.90
18131;DHT22;9191;54.324;10.126;2022-11-15T04:10:06;6.70;99.90
18131;DHT22;9191;54.324;10.126;2022-11-15T04:12:34;6.70;99.90
18131;DHT22;9191;54.324;10.126;2022-11-15T04:15:01;6.70;99.90
18131;DHT22;9191;54.324;10.126;2022-11-15T04:17:38;6.70;99.90
18131;DHT22;9191;54.324;10.126;2022-11-15T04:20:10;6.70;99.90
18131;DHT22;9191;54.324;10.126;2022-11-15T04:22:55;6.60;99.90
18131;DHT22;9191;54.324;10.126;2022-11-15T04:25:40;6.60;99.90
18131;DHT22;9191;54.324;10.126;2022-11-15T04:28:07;6.60;99.90
18131;DHT22;9191;54.324;10.126;2022-11-15T04:30:34;6.60;99.90
18131;DHT22;9191;54.324;10.126;2022-11-15T04:33:01;6.50;99.90
18131;DHT22;9191;54.324;10.126;2022-11-15T04:35:28;6.50;99.90
18131;DHT22;9191;54.324;10.126;2022-11-15T04:37:54;6.50;99.90
18131;DHT22;9191;54.324;10.126;2022-11-15T04:40:20;6.50;99.90
18131;DHT22;9191;54.324;10.126;2022-11-15T04:42:48;6.50;99.90
18131;DHT22;9191;54.324;10.126;2022-11-15T04:45:15;6.50;99.90
18131;DHT22;9191;54.324;10.126;2022-11-15T04:47:43;6.50;99.90
18131;DHT22;9191;54.324;10.126;2022-11-15T04:50:09;6.50;99.90
18131;DHT22;9191;54.324;10.126;2022-11-15T04:52:38;6.40;99.90
18131;DHT22;9191;54.324;10.126;2022-11-15T04:55:05;6.40;99.90
18131;DHT22;9191;54.324;10.126;2022-11-15T04:57:32;6.40;99.90
18131;DHT22;9191;54.324;10.126;2022-11-15T05:00:00;6.30;99.90
18131;DHT22;9191;54.324;10.126;2022-11-15T05:02:27;6.40;99.90
18131;DHT22;9191;54.324;10.126;2022-11-15T05:05:17;6.40;99.90
18131;DHT22;9191;54.324;10.126;2022-11-15T05:07:43;6.40;99.90
18131;DHT22;9191;54.324;10.126;2022-11-15T05:10:13;6.30;99.90
18131;DHT22;9191;54.324;10.126;2022-11-15T05:12:39;6.40;99.90
18131;DHT22;9191;54.324;10.126;2022-11-15T05:15:08;6.40;99.90
18131;DHT22;9191;54.324;10.126;2022-11-15T05:17:35;6.40;99.90
18131;DHT22;9191;54.324;10.126;2022-11-15T05:20:02;6.40;99.90
18131;DHT22;9191;54.324;10.126;2022-11-15T05:22:28;6.30;99.90
18131;DHT22;9191;54.324;10.126;2022-11-15T05:24:56;6.30;99.90
18131;DHT22;9191;54.324;10.126;2022-11-15T05:27:22;6.30;99.90
18131;DHT22;9191;54.324;10.126;2022-11-15T05:29:49;6.30;99.90
18131;DHT22;9191;54.324;10.126;2022-11-15T05:32:17;6.30;99.90
18131;DHT22;9191;54.324;10.126;2022-11-15T05:34:44;6.30;99.90
18131;DHT22;9191;54.324;10.126;2022-11-15T05:37:11;6.30;99.90
18131;DHT22;9191;54.324;10.126;2022-11-15T05:39:38;6.30;99.90
18131;DHT22;9191;54.324;10.126;2022-11-15T05:42:05;6.30;99.90
18131;DHT22;9191;54.324;10.126;2022-11-15T05:44:35;6.40;99.90
18131;DHT22;9191;54.324;10.126;2022-11-15T05:47:02;6.50;99.90
18131;DHT22;9191;54.324;10.126;2022-11-15T05:49:33;6.60;99.90
18131;DHT22;9191;54.324;10.126;2022-11-15T05:52:02;6.70;99.90
18131;DHT22;9191;54.324;10.126;2022-11-15T05:54:30;6.80;99.90
18131;DHT22;9191;54.324;10.126;2022-11-15T05:56:57;6.80;99.90
18131;DHT22;9191;54.324;10.126;2022-11-15T05:59:25;6.90;99.90
18131;DHT22;9191;54.324;10.126;2022-11-15T06:01:52;6.90;99.90
18131;DHT22;9191;54.324;10.126;2022-11-15T06:04:18;6.90;99.90
18131;DHT22;9191;54.324;10.126;2022-11-15T06:06:47;7.00;99.90
18131;DHT22;9191;54.324;10.126;2022-11-15T06:09:13;7.10;99.90
18131;DHT22;9191;54.324;10.126;2022-11-15T06:11:40;7.20;99.90
18131;DHT22;9191;54.324;10.126;2022-11-15T06:14:07;7.30;99.90
18131;DHT22;9191;54.324;10.126;2022-11-15T06:16:34;7.30;99.90
18131;DHT22;9191;54.324;10.126;2022-11-15T06:19:00;7.30;99.90
18131;DHT22;9191;54.324;10.126;2022-11-15T06:21:27;7.30;99.90
18131;DHT22;9191;54.324;10.126;2022-11-15T06:23:55;7.30;99.90
18131;DHT22;9191;54.324;10.126;2022-11-15T06:26:22;7.30;99.90
18131;DHT22;9191;54.324;10.126;2022-11-15T06:28:49;7.30;99.90
18131;DHT22;9191;54.324;10.126;2022-11-15T06:31:16;7.40;99.90
18131;DHT22;9191;54.324;10.126;2022-11-15T06:33:43;7.50;99.90
18131;DHT22;9191;54.324;10.126;2022-11-15T06:36:10;7.60;99.90
18131;DHT22;9191;54.324;10.126;2022-11-15T06:38:39;7.50;99.90
18131;DHT22;9191;54.324;10.126;2022-11-15T06:41:08;7.50;99.90
18131;DHT22;9191;54.324;10.126;2022-11-15T06:43:34;7.50;99.90
18131;DHT22;9191;54.324;10.126;2022-11-15T06:46:02;7.60;99.90
18131;DHT22;9191;54.324;10.126;2022-11-15T06:48:29;7.50;99.90
18131;DHT22;9191;54.324;10.126;2022-11-15T06:50:57;7.50;99.90
18131;DHT22;9191;54.324;10.126;2022-11-15T06:53:24;7.60;99.90
18131;DHT22;9191;54.324;10.126;2022-11-15T06:55:51;7.60;99.90
18131;DHT22;9191;54.324;10.126;2022-11-15T06:58:20;7.60;99.90
18131;DHT22;9191;54.324;10.126;2022-11-15T07:00:46;7.60;99.90
18131;DHT22;9191;54.324;10.126;2022-11-15T07:03:13;7.60;99.90
18131;DHT22;9191;54.324;10.126;2022-11-15T07:05:40;7.60;99.90
18131;DHT22;9191;54.324;10.126;2022-11-15T07:08:07;7.60;99.90
18131;DHT22;9191;54.324;10.126;2022-11-15T07:10:35;7.50;99.90
18131;DHT22;9191;54.324;10.126;2022-11-15T07:13:02;7.50;99.90
18131;DHT22;9191;54.324;10.126;2022-11-15T07:15:30;7.60;99.90
18131;DHT22;9191;54.324;10.126;2022-11-15T07:17:59;7.60;99.90
18131;DHT22;9191;54.324;10.126;2022-11-15T07:20:26;7.60;99.90
18131;DHT22;9191;54.324;10.126;2022-11-15T07:22:58;7.60;99.90
18131;DHT22;9191;54.324;10.126;2022-11-15T07:25:25;7.60;99.90
18131;DHT22;9191;54.324;10.126;2022-11-15T07:27:54;7.60;99.90
18131;DHT22;9191;54.324;10.126;2022-11-15T07:30:20;7.50;99.90
18131;DHT22;9191;54.324;10.126;2022-11-15T07:32:49;7.50;99.90
18131;DHT22;9191;54.324;10.126;2022-11-15T07:35:18;7.60;99.90
18131;DHT22;9191;54.324;10.126;2022-11-15T07:37:52;7.60;99.90
18131;DHT22;9191;54.324;10.126;2022-11-15T07:40:19;7.60;99.90
18131;DHT22;9191;54.324;10.126;2022-11-15T07:42:45;7.70;99.90
18131;DHT22;9191;54.324;10.126;2022-11-15T07:45:22;7.80;99.90
18131;DHT22;9191;54.324;10.126;2022-11-15T07:47:52;7.90;99.90
18131;DHT22;9191;54.324;10.126;2022-11-15T07:50:19;7.80;99.90
18131;DHT22;9191;54.324;10.126;2022-11-15T07:52:46;7.90;99.90
18131;DHT22;9191;54.324;10.126;2022-11-15T07:55:13;7.90;99.90
18131;DHT22;9191;54.324;10.126;2022-11-15T07:57:39;7.90;99.90
18131;DHT22;9191;54.324;10.126;2022-11-15T08:00:07;7.90;99.90
18131;DHT22;9191;54.324;10.126;2022-11-15T08:02:34;7.90;99.90
18131;DHT22;9191;54.324;10.126;2022-11-15T08:05:02;8.00;99.90
18131;DHT22;9191;54.324;10.126;2022-11-15T08:07:29;8.00;99.90
18131;DHT22;9191;54.324;10.126;2022-11-15T08:09:56;8.00;99.90
18131;DHT22;9191;54.324;10.126;2022-11-15T08:12:25;8.10;99.90
18131;DHT22;9191;54.324;10.126;2022-11-15T08:14:52;8.00;99.90
18131;DHT22;9191;54.324;10.126;2022-11-15T08:17:21;8.10;99.90
18131;DHT22;9191;54.324;10.126;2022-11-15T08:19:48;8.10;99.90
18131;DHT22;9191;54.324;10.126;2022-11-15T08:22:18;8.10;99.90
18131;DHT22;9191;54.324;10.126;2022-11-15T08:24:46;8.20;99.90
18131;DHT22;9191;54.324;10.126;2022-11-15T08:27:16;8.30;99.90
18131;DHT22;9191;54.324;10.126;2022-11-15T08:29:43;8.30;99.90
18131;DHT22;9191;54.324;10.126;2022-11-15T08:32:10;8.30;99.90
18131;DHT22;9191;54.324;10.126;2022-11-15T08:34:43;8.30;99.90
18131;DHT22;9191;54.324;10.126;2022-11-15T08:37:11;8.30;99.90
18131;DHT22;9191;54.324;10.126;2022-11-15T08:39:39;8.50;99.90
18131;DHT22;9191;54.324;10.126;2022-11-15T08:42:06;8.50;99.90
18131;DHT22;9191;54.324;10.126;2022-11-15T08:44:33;8.50;99.90
18131;DHT22;9191;54.324;10.126;2022-11-15T08:47:00;8.50;99.90
18131;DHT22;9191;54.324;10.126;2022-11-15T08:49:26;8.50;99.90
18131;DHT22;9191;54.324;10.126;2022-11-15T08:51:53;8.50;99.90
18131;DHT22;9191;54.324;10.126;2022-11-15T08:54:20;8.50;99.90
18131;DHT22;9191;54.324;10.126;2022-11-15T08:56:48;8.50;99.90
18131;DHT22;9191;54.324;10.126;2022-11-15T08:59:15;8.60;99.90
18131;DHT22;9191;54.324;10.126;2022-11-15T09:04:50;8.60;99.90
18131;DHT22;9191;54.324;10.126;2022-11-15T09:07:16;8.70;99.90
18131;DHT22;9191;54.324;10.126;2022-11-15T09:09:43;8.70;99.90
18131;DHT22;9191;54.324;10.126;2022-11-15T09:12:12;8.70;99.90
18131;DHT22;9191;54.324;10.126;2022-11-15T09:14:38;8.70;99.90
18131;DHT22;9191;54.324;10.126;2022-11-15T09:17:07;8.80;99.90
18131;DHT22;9191;54.324;10.126;2022-11-15T09:19:33;8.80;99.90
18131;DHT22;9191;54.324;10.126;2022-11-15T09:22:00;8.90;99.90
18131;DHT22;9191;54.324;10.126;2022-11-15T09:24:27;8.90;99.90
18131;DHT22;9191;54.324;10.126;2022-11-15T09:26:58;8.90;99.90
18131;DHT22;9191;54.324;10.126;2022-11-15T09:29:29;8.80;99.90
18131;DHT22;9191;54.324;10.126;2022-11-15T09:31:59;8.90;99.90
18131;DHT22;9191;54.324;10.126;2022-11-15T09:34:28;8.90;99.90
18131;DHT22;9191;54.324;10.126;2022-11-15T09:36:55;9.00;99.90
18131;DHT22;9191;54.324;10.126;2022-11-15T09:39:22;9.00;99.90
18131;DHT22;9191;54.324;10.126;2022-11-15T09:41:57;9.00;99.90
18131;DHT22;9191;54.324;10.126;2022-11-15T09:49:43;9.10;99.90
18131;DHT22;9191;54.324;10.126;2022-11-15T09:52:10;9.00;99.90
18131;DHT22;9191;54.324;10.126;2022-11-15T09:54:38;9.00;99.90
18131;DHT22;9191;54.324;10.126;2022-11-15T09:57:09;9.10;99.90
18131;DHT22;9191;54.324;10.126;2022-11-15T09:59:49;9.10;99.90
18131;DHT22;9191;54.324;10.126;2022-11-15T10:02:22;9.10;99.90
18131;DHT22;9191;54.324;10.126;2022-11-15T10:04:58;9.20;99.90
18131;DHT22;9191;54.324;10.126;2022-11-15T10:07:26;9.30;99.90
18131;DHT22;9191;54.324;10.126;2022-11-15T10:09:54;9.20;99.90
18131;DHT22;9191;54.324;10.126;2022-11-15T10:12:22;9.20;99.90
18131;DHT22;9191;54.324;10.126;2022-11-15T10:14:50;9.30;99.90
18131;DHT22;9191;54.324;10.126;2022-11-15T10:17:22;9.30;99.90
18131;DHT22;9191;54.324;10.126;2022-11-15T10:19:54;9.40;99.90
18131;DHT22;9191;54.324;10.126;2022-11-15T10:22:26;9.40;99.90
18131;DHT22;9191;54.324;10.126;2022-11-15T10:24:58;9.40;99.90
18131;DHT22;9191;54.324;10.126;2022-11-15T10:27:26;9.30;99.90
18131;DHT22;9191;54.324;10.126;2022-11-15T10:29:53;9.40;99.90
18131;DHT22;9191;54.324;10.126;2022-11-15T10:32:20;9.50;99.90
18131;DHT22;9191;54.324;10.126;2022-11-15T10:34:47;9.50;99.90
18131;DHT22;9191;54.324;10.126;2022-11-15T10:37:14;9.50;99.90
18131;DHT22;9191;54.324;10.126;2022-11-15T10:40:03;9.50;99.90
18131;DHT22;9191;54.324;10.126;2022-11-15T10:42:30;9.50;99.90
18131;DHT22;9191;54.324;10.126;2022-11-15T10:44:56;9.60;99.90
18131;DHT22;9191;54.324;10.126;2022-11-15T10:47:27;9.60;99.90
18131;DHT22;9191;54.324;10.126;2022-11-15T10:50:00;9.50;99.90
18131;DHT22;9191;54.324;10.126;2022-11-15T10:52:27;9.50;99.90
18131;DHT22;9191;54.324;10.126;2022-11-15T10:54:55;9.50;99.90
18131;DHT22;9191;54.324;10.126;2022-11-15T10:57:25;9.40;99.90
18131;DHT22;9191;54.324;10.126;2022-11-15T10:59:54;9.50;99.90
18131;DHT22;9191;54.324;10.126;2022-11-15T11:02:25;9.50;99.90
18131;DHT22;9191;54.324;10.126;2022-11-15T11:04:53;9.40;99.90
18131;DHT22;9191;54.324;10.126;2022-11-15T11:07:21;9.50;99.90
18131;DHT22;9191;54.324;10.126;2022-11-15T11:09:56;9.50;99.90
18131;DHT22;9191;54.324;10.126;2022-11-15T11:12:28;9.50;99.90
18131;DHT22;9191;54.324;10.126;2022-11-15T11:14:59;9.60;99.90
18131;DHT22;9191;54.324;10.126;2022-11-15T11:17:29;9.60;99.90
18131;DHT22;9191;54.324;10.126;2022-11-15T11:20:02;9.50;99.90
18131;DHT22;9191;54.324;10.126;2022-11-15T11:22:33;9.50;99.90
18131;DHT22;9191;54.324;10.126;2022-11-15T11:25:10;9.50;99.90
18131;DHT22;9191;54.324;10.126;2022-11-15T11:27:43;9.60;99.90
18131;DHT22;9191;54.324;10.126;2022-11-15T11:30:17;9.60;99.90
18131;DHT22;9191;54.324;10.126;2022-11-15T11:32:49;9.60;99.90
18131;DHT22;9191;54.324;10.126;2022-11-15T11:35:18;9.70;99.90
18131;DHT22;9191;54.324;10.126;2022-11-15T11:37:56;9.70;99.90
18131;DHT22;9191;54.324;10.126;2022-11-15T11:40:28;9.80;99.90
18131;DHT22;9191;54.324;10.126;2022-11-15T11:42:58;9.80;99.90
18131;DHT22;9191;54.324;10.126;2022-11-15T11:45:33;9.80;99.90
18131;DHT22;9191;54.324;10.126;2022-11-15T11:48:07;9.80;99.90
18131;DHT22;9191;54.324;10.126;2022-11-15T11:50:37;9.90;99.90
18131;DHT22;9191;54.324;10.126;2022-11-15T11:53:05;9.90;99.90
18131;DHT22;9191;54.324;10.126;2022-11-15T11:55:36;9.90;99.90
18131;DHT22;9191;54.324;10.126;2022-11-15T11:58:09;9.90;99.90
18131;DHT22;9191;54.324;10.126;2022-11-15T12:00:38;9.90;99.90
18131;DHT22;9191;54.324;10.126;2022-11-15T12:03:07;9.90;99.90
18131;DHT22;9191;54.324;10.126;2022-11-15T12:05:36;10.00;99.90
18131;DHT22;9191;54.324;10.126;2022-11-15T12:10:47;10.00;99.90
18131;DHT22;9191;54.324;10.126;2022-11-15T12:13:18;10.00;99.90
18131;DHT22;9191;54.324;10.126;2022-11-15T12:15:47;10.00;99.90
18131;DHT22;9191;54.324;10.126;2022-11-15T12:18:17;10.00;99.90
18131;DHT22;9191;54.324;10.126;2022-11-15T12:20:49;10.10;99.90
18131;DHT22;9191;54.324;10.126;2022-11-15T12:23:19;10.10;99.90
18131;DHT22;9191;54.324;10.126;2022-11-15T12:25:47;10.10;99.90
18131;DHT22;9191;54.324;10.126;2022-11-15T12:28:16;10.10;99.90
18131;DHT22;9191;54.324;10.126;2022-11-15T12:30:46;10.10;99.90
18131;DHT22;9191;54.324;10.126;2022-11-15T12:36:09;10.20;99.90
18131;DHT22;9191;54.324;10.126;2022-11-15T12:38:54;10.20;99.90
18131;DHT22;9191;54.324;10.126;2022-11-15T12:41:22;10.30;99.90
18131;DHT22;9191;54.324;10.126;2022-11-15T12:43:49;10.20;99.90
18131;DHT22;9191;54.324;10.126;2022-11-15T12:46:21;10.20;99.90
18131;DHT22;9191;54.324;10.126;2022-11-15T12:48:50;10.20;99.90
18131;DHT22;9191;54.324;10.126;2022-11-15T12:51:18;10.20;99.90
18131;DHT22;9191;54.324;10.126;2022-11-15T12:53:45;10.20;99.90
18131;DHT22;9191;54.324;10.126;2022-11-15T12:56:19;10.20;99.90
18131;DHT22;9191;54.324;10.126;2022-11-15T12:58:51;10.30;99.90
18131;DHT22;9191;54.324;10.126;2022-11-15T13:04:22;10.20;99.90
18131;DHT22;9191;54.324;10.126;2022-11-15T13:06:52;10.30;99.90
18131;DHT22;9191;54.324;10.126;2022-11-15T13:12:06;10.40;99.90
18131;DHT22;9191;54.324;10.126;2022-11-15T13:14:50;10.30;99.90
18131;DHT22;9191;54.324;10.126;2022-11-15T13:22:46;10.40;99.90
18131;DHT22;9191;54.324;10.126;2022-11-15T13:25:26;10.40;99.90
18131;DHT22;9191;54.324;10.126;2022-11-15T13:27:54;10.40;99.90
18131;DHT22;9191;54.324;10.126;2022-11-15T13:30:23;10.40;99.90
18131;DHT22;9191;54.324;10.126;2022-11-15T13:32:50;10.40;99.90
18131;DHT22;9191;54.324;10.126;2022-11-15T13:35:21;10.40;99.90
18131;DHT22;9191;54.324;10.126;2022-11-15T13:37:50;10.40;99.90
18131;DHT22;9191;54.324;10.126;2022-11-15T13:40:24;10.50;99.90
18131;DHT22;9191;54.324;10.126;2022-11-15T13:42:52;10.40;99.90
18131;DHT22;9191;54.324;10.126;2022-11-15T13:45:19;10.40;99.90
18131;DHT22;9191;54.324;10.126;2022-11-15T13:47:50;10.40;99.90
18131;DHT22;9191;54.324;10.126;2022-11-15T13:50:17;10.40;99.90
18131;DHT22;9191;54.324;10.126;2022-11-15T13:52:45;10.50;99.90
18131;DHT22;9191;54.324;10.126;2022-11-15T13:55:16;10.50;99.90
18131;DHT22;9191;54.324;10.126;2022-11-15T13:57:44;10.50;99.90
18131;DHT22;9191;54.324;10.126;2022-11-15T14:03:05;10.50;99.90
18131;DHT22;9191;54.324;10.126;2022-11-15T14:05:33;10.50;99.90
18131;DHT22;9191;54.324;10.126;2022-11-15T14:08:00;10.60;99.90
18131;DHT22;9191;54.324;10.126;2022-11-15T14:10:31;10.60;99.90
18131;DHT22;9191;54.324;10.126;2022-11-15T14:12:58;10.70;99.90
18131;DHT22;9191;54.324;10.126;2022-11-15T14:15:26;10.60;99.90
18131;DHT22;9191;54.324;10.126;2022-11-15T14:17:53;10.50;99.90
18131;DHT22;9191;54.324;10.126;2022-11-15T14:20:26;10.60;99.90
18131;DHT22;9191;54.324;10.126;2022-11-15T14:22:53;10.60;99.90
18131;DHT22;9191;54.324;10.126;2022-11-15T14:25:21;10.60;99.90
18131;DHT22;9191;54.324;10.126;2022-11-15T14:30:35;10.60;99.90
18131;DHT22;9191;54.324;10.126;2022-11-15T14:33:01;10.70;99.90
18131;DHT22;9191;54.324;10.126;2022-11-15T14:35:32;10.70;99.90
18131;DHT22;9191;54.324;10.126;2022-11-15T14:37:59;10.80;99.90
18131;DHT22;9191;54.324;10.126;2022-11-15T14:40:28;10.70;99.90
18131;DHT22;9191;54.324;10.126;2022-11-15T14:42:55;10.70;99.90
18131;DHT22;9191;54.324;10.126;2022-11-15T14:45:21;10.70;99.90
18131;DHT22;9191;54.324;10.126;2022-11-15T14:47:50;10.70;99.90
18131;DHT22;9191;54.324;10.126;2022-11-15T14:50:17;10.70;99.90
18131;DHT22;9191;54.324;10.126;2022-11-15T14:52:44;10.70;99.90
18131;DHT22;9191;54.324;10.126;2022-11-15T14:55:16;10.80;99.90
18131;DHT22;9191;54.324;10.126;2022-11-15T14:57:46;10.80;99.90
18131;DHT22;9191;54.324;10.126;2022-11-15T15:00:13;10.80;99.90
18131;DHT22;9191;54.324;10.126;2022-11-15T15:02:40;10.70;99.90
18131;DHT22;9191;54.324;10.126;2022-11-15T15:05:15;10.80;99.90
18131;DHT22;9191;54.324;10.126;2022-11-15T15:07:45;10.80;99.90
18131;DHT22;9191;54.324;10.126;2022-11-15T15:10:12;10.70;99.90
18131;DHT22;9191;54.324;10.126;2022-11-15T15:12:42;10.60;99.90
18131;DHT22;9191;54.324;10.126;2022-11-15T15:15:12;10.60;99.90
18131;DHT22;9191;54.324;10.126;2022-11-15T15:17:39;10.50;99.90
18131;DHT22;9191;54.324;10.126;2022-11-15T15:20:07;10.40;99.90
18131;DHT22;9191;54.324;10.126;2022-11-15T15:22:35;10.30;99.90
18131;DHT22;9191;54.324;10.126;2022-11-15T15:25:02;10.30;99.90
18131;DHT22;9191;54.324;10.126;2022-11-15T15:27:30;10.40;99.90
18131;DHT22;9191;54.324;10.126;2022-11-15T15:29:56;10.40;99.90
18131;DHT22;9191;54.324;10.126;2022-11-15T15:32:23;10.40;99.90
18131;DHT22;9191;54.324;10.126;2022-11-15T15:34:50;10.40;99.90
18131;DHT22;9191;54.324;10.126;2022-11-15T15:37:19;10.30;99.90
18131;DHT22;9191;54.324;10.126;2022-11-15T15:39:55;10.20;99.90
18131;DHT22;9191;54.324;10.126;2022-11-15T15:42:22;10.20;99.90
18131;DHT22;9191;54.324;10.126;2022-11-15T15:44:49;10.10;99.90
18131;DHT22;9191;54.324;10.126;2022-11-15T15:47:17;10.10;99.90
18131;DHT22;9191;54.324;10.126;2022-11-15T15:49:47;10.10;99.90
18131;DHT22;9191;54.324;10.126;2022-11-15T15:52:14;10.10;99.90
18131;DHT22;9191;54.324;10.126;2022-11-15T15:54:44;10.10;99.90
18131;DHT22;9191;54.324;10.126;2022-11-15T15:57:13;10.10;99.90
18131;DHT22;9191;54.324;10.126;2022-11-15T15:59:40;10.10;99.90
18131;DHT22;9191;54.324;10.126;2022-11-15T16:02:08;10.00;99.90
18131;DHT22;9191;54.324;10.126;2022-11-15T16:04:35;10.00;99.90
18131;DHT22;9191;54.324;10.126;2022-11-15T16:07:02;9.90;99.90
18131;DHT22;9191;54.324;10.126;2022-11-15T16:09:29;9.90;99.90
18131;DHT22;9191;54.324;10.126;2022-11-15T16:12:15;9.90;99.90
18131;DHT22;9191;54.324;10.126;2022-11-15T16:14:42;9.90;99.90
18131;DHT22;9191;54.324;10.126;2022-11-15T16:17:08;9.90;99.90
18131;DHT22;9191;54.324;10.126;2022-11-15T16:19:36;10.00;99.90
18131;DHT22;9191;54.324;10.126;2022-11-15T16:22:02;9.90;99.90
18131;DHT22;9191;54.324;10.126;2022-11-15T16:24:29;9.90;99.90
18131;DHT22;9191;54.324;10.126;2022-11-15T16:26:56;9.90;99.90